createdAt,value
2017-10-11T00:00:19.724Z,14.94
2017-10-11T00:01:19.711Z,14.99
2017-10-11T00:02:19.706Z,14.96
2017-10-11T00:03:19.708Z,14.91
2017-10-11T00:04:19.694Z,14.95
2017-10-11T00:05:19.689Z,14.88
2017-10-11T00:06:19.688Z,14.86
2017-10-11T00:07:19.691Z,14.84
2017-10-11T00:08:19.672Z,14.81
2017-10-11T00:09:19.336Z,14.77
2017-10-11T00:10:19.674Z,14.65
2017-10-11T00:11:19.317Z,14.62
2017-10-11T00:12:19.653Z,14.58
2017-10-11T00:13:19.306Z,14.75
2017-10-11T00:14:19.311Z,14.54
2017-10-11T00:15:19.626Z,14.55
2017-10-11T00:16:19.617Z,14.47
2017-10-11T00:17:19.614Z,14.54
2017-10-11T00:18:19.610Z,14.52
2017-10-11T00:19:19.896Z,14.47
2017-10-11T00:20:19.592Z,14.55
2017-10-11T00:21:19.586Z,14.43
2017-10-11T00:22:19.583Z,14.46
2017-10-11T00:23:19.572Z,14.42
2017-10-11T00:24:19.574Z,14.36
2017-10-11T00:25:19.564Z,14.39
2017-10-11T00:26:19.558Z,14.39
2017-10-11T00:27:19.551Z,14.42
2017-10-11T00:28:19.240Z,14.43
2017-10-11T00:29:19.533Z,14.42
2017-10-11T00:30:19.549Z,14.52
2017-10-11T00:31:19.521Z,14.52
2017-10-11T00:32:19.529Z,14.58
2017-10-11T00:33:19.511Z,14.51
2017-10-11T00:34:19.173Z,14.55
2017-10-11T00:35:19.496Z,14.54
2017-10-11T00:36:19.500Z,14.57
2017-10-11T00:37:19.482Z,14.6
2017-10-11T00:38:19.475Z,14.58
2017-10-11T00:39:19.474Z,14.65
2017-10-11T00:40:19.460Z,14.58
2017-10-11T00:41:19.123Z,14.58
2017-10-11T00:42:19.468Z,14.52
2017-10-11T00:43:19.121Z,14.68
2017-10-11T00:44:19.107Z,14.61
2017-10-11T00:45:19.433Z,14.68
2017-10-11T00:46:19.420Z,14.69
2017-10-11T00:47:19.086Z,14.68
2017-10-11T00:48:19.409Z,14.69
2017-10-11T00:49:19.404Z,14.65
2017-10-11T00:50:19.398Z,14.78
2017-10-11T00:51:19.390Z,14.77
2017-10-11T00:52:19.050Z,14.75
2017-10-11T00:53:19.405Z,14.77
2017-10-11T00:54:19.044Z,14.75
2017-10-11T00:55:19.032Z,14.73
2017-10-11T00:56:19.359Z,14.81
2017-10-11T00:57:19.358Z,14.72
2017-10-11T00:58:19.017Z,14.81
2017-10-11T00:59:19.337Z,14.75
2017-10-11T01:00:19.334Z,14.81
2017-10-11T01:01:19.325Z,14.83
2017-10-11T01:02:19.321Z,14.78
2017-10-11T01:03:19.313Z,14.81
2017-10-11T01:04:18.985Z,14.91
2017-10-11T01:05:18.969Z,14.88
2017-10-11T01:06:19.292Z,14.89
2017-10-11T01:07:19.292Z,14.86
2017-10-11T01:08:19.283Z,14.88
2017-10-11T01:09:19.277Z,14.89
2017-10-11T01:10:19.270Z,14.81
2017-10-11T01:11:18.929Z,14.89
2017-10-11T01:12:19.254Z,14.88
2017-10-11T01:13:19.258Z,14.88
2017-10-11T01:14:19.241Z,14.89
2017-10-11T01:15:19.240Z,14.86
2017-10-11T01:16:18.898Z,14.95
2017-10-11T01:17:19.226Z,14.95
2017-10-11T01:18:18.892Z,14.95
2017-10-11T01:19:19.214Z,15.02
2017-10-11T01:20:19.210Z,14.91
2017-10-11T01:21:19.520Z,14.98
2017-10-11T01:22:19.191Z,14.99
2017-10-11T01:23:19.188Z,14.99
2017-10-11T01:24:19.189Z,15.06
2017-10-11T01:25:19.171Z,15.01
2017-10-11T01:26:19.181Z,15.03
2017-10-11T01:27:18.833Z,15.06
2017-10-11T01:28:18.823Z,15.09
2017-10-11T01:29:19.151Z,15.03
2017-10-11T01:30:18.810Z,15.07
2017-10-11T01:31:19.139Z,15.09
2017-10-11T01:32:19.136Z,15.03
2017-10-11T01:33:18.793Z,15.03
2017-10-11T01:34:19.122Z,15.09
2017-10-11T01:35:19.113Z,15.09
2017-10-11T01:36:19.106Z,15.11
2017-10-11T01:37:18.770Z,15.03
2017-10-11T01:38:19.111Z,15.13
2017-10-11T01:39:19.090Z,15.11
2017-10-11T01:40:19.088Z,15.14
2017-10-11T01:41:19.075Z,15.16
2017-10-11T01:42:19.070Z,15.17
2017-10-11T01:43:19.063Z,15.11
2017-10-11T01:44:19.055Z,15.07
2017-10-11T01:45:19.051Z,15.17
2017-10-11T01:46:18.717Z,15.16
2017-10-11T01:47:18.707Z,15.06
2017-10-11T01:48:19.032Z,15.1
2017-10-11T01:49:19.028Z,15.1
2017-10-11T01:50:18.691Z,15.09
2017-10-11T01:51:19.016Z,15.01
2017-10-11T01:52:18.674Z,15.01
2017-10-11T01:53:18.671Z,15.07
2017-10-11T01:54:18.993Z,15.1
2017-10-11T01:55:18.660Z,15.03
2017-10-11T01:56:18.984Z,15.06
2017-10-11T01:57:18.979Z,15.09
2017-10-11T01:58:18.640Z,15.07
2017-10-11T01:59:18.980Z,15.09
2017-10-11T02:00:18.959Z,15.06
2017-10-11T02:01:18.950Z,15.06
2017-10-11T02:02:18.944Z,15.07
2017-10-11T02:03:18.941Z,15.03
2017-10-11T02:04:18.603Z,15.09
2017-10-11T02:05:18.934Z,15.02
2017-10-11T02:06:18.922Z,15.02
2017-10-11T02:07:18.582Z,15.02
2017-10-11T02:08:18.907Z,15.07
2017-10-11T02:09:18.903Z,15.03
2017-10-11T02:10:18.568Z,15.06
2017-10-11T02:11:18.891Z,15.06
2017-10-11T02:12:18.564Z,15.06
2017-10-11T02:13:18.877Z,15.06
2017-10-11T02:14:18.869Z,15.07
2017-10-11T02:15:18.544Z,15.09
2017-10-11T02:16:18.529Z,15.01
2017-10-11T02:17:18.852Z,15.06
2017-10-11T02:18:18.523Z,15.03
2017-10-11T02:19:18.507Z,15.11
2017-10-11T02:20:18.509Z,15.06
2017-10-11T02:21:18.826Z,15.07
2017-10-11T02:22:18.490Z,15.07
2017-10-11T02:23:18.818Z,15.01
2017-10-11T02:24:18.806Z,15.07
2017-10-11T02:25:18.809Z,15.03
2017-10-11T02:26:18.793Z,15.1
2017-10-11T02:27:18.793Z,15.09
2017-10-11T02:28:18.787Z,15.01
2017-10-11T02:29:18.785Z,15.07
2017-10-11T02:30:18.107Z,15.03
2017-10-11T02:31:18.785Z,15.06
2017-10-11T02:32:18.426Z,15.03
2017-10-11T02:33:18.756Z,15.06
2017-10-11T02:34:18.441Z,15.02
2017-10-11T02:35:18.741Z,14.98
2017-10-11T02:36:18.735Z,14.96
2017-10-11T02:37:18.727Z,14.94
2017-10-11T02:38:18.724Z,14.92
2017-10-11T02:39:18.717Z,14.86
2017-10-11T02:40:18.713Z,14.84
2017-10-11T02:41:18.710Z,14.78
2017-10-11T02:42:18.366Z,14.81
2017-10-11T02:43:18.689Z,14.8
2017-10-11T02:44:18.700Z,14.69
2017-10-11T02:45:18.682Z,14.68
2017-10-11T02:46:18.672Z,14.68
2017-10-11T02:47:18.669Z,14.68
2017-10-11T02:48:18.341Z,14.64
2017-10-11T02:49:18.652Z,14.7
2017-10-11T02:50:18.646Z,14.72
2017-10-11T02:51:18.640Z,14.68
2017-10-11T02:52:18.306Z,14.72
2017-10-11T02:53:18.629Z,14.7
2017-10-11T02:54:18.634Z,14.65
2017-10-11T02:55:18.616Z,14.62
2017-10-11T02:56:18.614Z,14.51
2017-10-11T02:57:18.626Z,14.54
2017-10-11T02:58:18.598Z,14.58
2017-10-11T02:59:18.589Z,14.6
2017-10-11T03:00:18.580Z,14.62
2017-10-11T03:01:18.579Z,14.55
2017-10-11T03:02:18.572Z,14.55
2017-10-11T03:03:18.587Z,14.52
2017-10-11T03:04:18.561Z,14.55
2017-10-11T03:05:18.218Z,14.54
2017-10-11T03:06:18.556Z,14.36
2017-10-11T03:07:18.536Z,14.52
2017-10-11T03:08:18.210Z,14.46
2017-10-11T03:09:18.523Z,14.46
2017-10-11T03:10:18.521Z,14.46
2017-10-11T03:11:18.181Z,14.45
2017-10-11T03:12:18.173Z,14.45
2017-10-11T03:13:18.503Z,14.51
2017-10-11T03:14:18.500Z,14.5
2017-10-11T03:15:18.480Z,14.51
2017-10-11T03:16:18.485Z,14.39
2017-10-11T03:17:18.474Z,14.52
2017-10-11T03:18:18.465Z,14.54
2017-10-11T03:19:18.457Z,14.57
2017-10-11T03:20:18.449Z,14.52
2017-10-11T03:21:18.446Z,14.54
2017-10-11T03:22:18.439Z,14.45
2017-10-11T03:23:18.434Z,14.47
2017-10-11T03:24:18.425Z,14.47
2017-10-11T03:25:18.421Z,14.55
2017-10-11T03:26:18.709Z,14.46
2017-10-11T03:27:18.070Z,14.51
2017-10-11T03:28:18.402Z,14.47
2017-10-11T03:29:18.394Z,14.39
2017-10-11T03:30:18.394Z,14.42
2017-10-11T03:31:18.384Z,14.5
2017-10-11T03:32:18.366Z,14.46
2017-10-11T03:33:18.034Z,14.47
2017-10-11T03:34:18.361Z,14.46
2017-10-11T03:35:18.025Z,14.47
2017-10-11T03:36:18.015Z,14.47
2017-10-11T03:37:18.338Z,14.6
2017-10-11T03:38:18.362Z,14.55
2017-10-11T03:39:18.334Z,14.55
2017-10-11T03:40:18.325Z,14.52
2017-10-11T03:41:18.319Z,14.51
2017-10-11T03:42:17.972Z,14.57
2017-10-11T03:43:17.968Z,14.58
2017-10-11T03:44:18.299Z,14.5
2017-10-11T03:45:18.285Z,14.58
2017-10-11T03:46:17.951Z,14.57
2017-10-11T03:47:18.272Z,14.55
2017-10-11T03:48:17.937Z,14.55
2017-10-11T03:49:17.932Z,14.4
2017-10-11T03:50:18.254Z,14.4
2017-10-11T03:51:17.923Z,14.45
2017-10-11T03:52:18.241Z,14.37
2017-10-11T03:53:18.233Z,14.55
2017-10-11T03:54:18.227Z,14.37
2017-10-11T03:55:18.221Z,14.47
2017-10-11T03:56:18.217Z,14.52
2017-10-11T03:57:18.207Z,14.5
2017-10-11T03:58:17.880Z,14.52
2017-10-11T03:59:18.196Z,14.57
2017-10-11T04:00:17.859Z,14.57
2017-10-11T04:01:18.187Z,14.54
2017-10-11T04:02:18.175Z,14.57
2017-10-11T04:03:18.172Z,14.57
2017-10-11T04:04:18.174Z,14.57
2017-10-11T04:05:18.157Z,14.57
2017-10-11T04:06:17.816Z,14.54
2017-10-11T04:07:17.813Z,14.54
2017-10-11T04:08:18.136Z,14.52
2017-10-11T04:09:18.145Z,14.52
2017-10-11T04:10:18.123Z,14.51
2017-10-11T04:11:18.114Z,14.52
2017-10-11T04:12:18.107Z,14.6
2017-10-11T04:13:17.772Z,14.52
2017-10-11T04:14:18.101Z,14.58
2017-10-11T04:15:18.103Z,14.57
2017-10-11T04:16:18.079Z,14.55
2017-10-11T04:17:18.075Z,14.47
2017-10-11T04:18:18.072Z,14.55
2017-10-11T04:19:18.062Z,14.55
2017-10-11T04:20:18.059Z,14.54
2017-10-11T04:21:18.056Z,14.45
2017-10-11T04:22:18.051Z,14.55
2017-10-11T04:23:18.043Z,14.52
2017-10-11T04:24:18.033Z,14.55
2017-10-11T04:25:18.037Z,14.51
2017-10-11T04:26:17.690Z,14.5
2017-10-11T04:27:18.014Z,14.6
2017-10-11T04:28:18.305Z,14.57
2017-10-11T04:29:17.996Z,14.61
2017-10-11T04:30:17.991Z,14.47
2017-10-11T04:31:17.989Z,14.54
2017-10-11T04:32:17.979Z,14.54
2017-10-11T04:33:17.974Z,14.42
2017-10-11T04:34:17.978Z,14.51
2017-10-11T04:35:17.966Z,14.4
2017-10-11T04:36:17.955Z,14.47
2017-10-11T04:37:17.645Z,14.4
2017-10-11T04:38:17.274Z,14.43
2017-10-11T04:39:17.935Z,14.46
2017-10-11T04:40:17.936Z,14.42
2017-10-11T04:41:17.591Z,14.39
2017-10-11T04:42:17.918Z,14.51
2017-10-11T04:43:17.579Z,14.51
2017-10-11T04:44:17.902Z,14.58
2017-10-11T04:45:17.896Z,14.58
2017-10-11T04:46:17.555Z,14.54
2017-10-11T04:47:17.883Z,14.52
2017-10-11T04:48:17.879Z,14.55
2017-10-11T04:49:17.545Z,14.55
2017-10-11T04:50:17.903Z,14.51
2017-10-11T04:51:17.854Z,14.55
2017-10-11T04:52:17.519Z,14.57
2017-10-11T04:53:17.841Z,14.51
2017-10-11T04:54:17.841Z,14.47
2017-10-11T04:55:17.825Z,14.47
2017-10-11T04:56:17.826Z,14.54
2017-10-11T04:57:17.819Z,14.68
2017-10-11T04:58:17.477Z,14.47
2017-10-11T04:59:17.774Z,14.6
2017-10-11T05:00:17.821Z,14.55
2017-10-11T05:01:17.788Z,14.65
2017-10-11T05:02:17.783Z,14.51
2017-10-11T05:03:17.445Z,14.68
2017-10-11T05:04:17.441Z,14.62
2017-10-11T05:05:17.762Z,14.64
2017-10-11T05:06:17.763Z,14.75
2017-10-11T05:07:17.752Z,14.64
2017-10-11T05:08:17.742Z,14.65
2017-10-11T05:09:17.744Z,14.72
2017-10-11T05:10:17.735Z,14.7
2017-10-11T05:11:17.723Z,14.72
2017-10-11T05:12:17.718Z,14.81
2017-10-11T05:13:17.378Z,14.72
2017-10-11T05:14:17.954Z,14.81
2017-10-11T05:15:17.374Z,14.8
2017-10-11T05:16:17.693Z,14.84
2017-10-11T05:17:17.376Z,14.81
2017-10-11T05:18:17.684Z,14.84
2017-10-11T05:19:17.674Z,14.81
2017-10-11T05:20:17.668Z,14.81
2017-10-11T05:21:17.669Z,14.81
2017-10-11T05:22:17.322Z,14.86
2017-10-11T05:23:17.657Z,14.92
2017-10-11T05:24:17.310Z,14.86
2017-10-11T05:25:17.640Z,14.92
2017-10-11T05:26:17.638Z,14.8
2017-10-11T05:27:17.620Z,14.91
2017-10-11T05:28:17.620Z,14.91
2017-10-11T05:29:17.278Z,14.94
2017-10-11T05:30:17.271Z,14.91
2017-10-11T05:31:17.603Z,14.94
2017-10-11T05:32:17.590Z,14.89
2017-10-11T05:33:17.587Z,14.95
2017-10-11T05:34:17.577Z,14.89
2017-10-11T05:35:17.572Z,14.98
2017-10-11T05:36:17.234Z,14.89
2017-10-11T05:37:17.557Z,14.98
2017-10-11T05:38:17.554Z,15.03
2017-10-11T05:39:17.211Z,14.89
2017-10-11T05:40:17.542Z,14.95
2017-10-11T05:41:17.530Z,14.92
2017-10-11T05:42:17.525Z,14.96
2017-10-11T05:43:17.527Z,15.02
2017-10-11T05:44:17.514Z,15.01
2017-10-11T05:45:17.176Z,15.02
2017-10-11T05:46:17.172Z,15.03
2017-10-11T05:47:17.498Z,15.06
2017-10-11T05:48:17.157Z,15.03
2017-10-11T05:49:17.481Z,15.09
2017-10-11T05:50:17.479Z,15.03
2017-10-11T05:51:17.472Z,15.01
2017-10-11T05:52:17.462Z,15.1
2017-10-11T05:53:17.477Z,15.03
2017-10-11T05:54:17.119Z,15.13
2017-10-11T05:55:17.446Z,15.09
2017-10-11T05:56:17.439Z,15.11
2017-10-11T05:57:17.431Z,15.16
2017-10-11T05:58:17.427Z,15.21
2017-10-11T05:59:17.089Z,15.16
2017-10-11T06:00:17.416Z,15.2
2017-10-11T06:01:17.411Z,15.16
2017-10-11T06:02:17.407Z,15.23
2017-10-11T06:03:17.397Z,15.14
2017-10-11T06:04:17.397Z,15.23
2017-10-11T06:05:17.384Z,15.2
2017-10-11T06:06:17.379Z,15.25
2017-10-11T06:07:17.737Z,15.27
2017-10-11T06:08:17.035Z,15.36
2017-10-11T06:09:17.358Z,15.31
2017-10-11T06:10:17.353Z,15.35
2017-10-11T06:11:17.751Z,15.29
2017-10-11T06:12:17.345Z,15.46
2017-10-11T06:13:17.705Z,15.43
2017-10-11T06:14:17.330Z,15.38
2017-10-11T06:15:17.324Z,15.44
2017-10-11T06:16:17.317Z,15.47
2017-10-11T06:17:17.309Z,15.46
2017-10-11T06:18:17.300Z,15.41
2017-10-11T06:19:16.968Z,15.54
2017-10-11T06:20:16.959Z,15.54
2017-10-11T06:21:17.287Z,15.49
2017-10-11T06:22:17.280Z,15.57
2017-10-11T06:23:17.275Z,15.54
2017-10-11T06:24:17.269Z,15.49
2017-10-11T06:25:17.263Z,15.53
2017-10-11T06:26:17.280Z,15.5
2017-10-11T06:27:16.919Z,15.64
2017-10-11T06:28:17.253Z,15.59
2017-10-11T06:29:17.244Z,15.64
2017-10-11T06:30:17.230Z,15.59
2017-10-11T06:31:16.912Z,15.72
2017-10-11T06:32:17.234Z,15.62
2017-10-11T06:33:17.223Z,15.65
2017-10-11T06:34:16.876Z,15.8
2017-10-11T06:35:17.204Z,15.74
2017-10-11T06:36:16.866Z,15.78
2017-10-11T06:37:17.206Z,15.74
2017-10-11T06:38:17.181Z,15.72
2017-10-11T06:39:17.182Z,15.76
2017-10-11T06:40:17.174Z,15.76
2017-10-11T06:41:17.171Z,15.8
2017-10-11T06:42:16.832Z,15.74
2017-10-11T06:43:17.170Z,15.75
2017-10-11T06:44:17.155Z,15.8
2017-10-11T06:45:17.151Z,15.78
2017-10-11T06:46:16.475Z,15.75
2017-10-11T06:47:17.135Z,15.83
2017-10-11T06:48:17.128Z,15.86
2017-10-11T06:49:16.792Z,15.87
2017-10-11T06:50:17.117Z,15.92
2017-10-11T06:51:17.111Z,15.83
2017-10-11T06:52:17.105Z,15.9
2017-10-11T06:53:16.770Z,15.86
2017-10-11T06:54:16.771Z,15.92
2017-10-11T06:55:17.090Z,16
2017-10-11T06:56:17.086Z,15.97
2017-10-11T06:57:17.077Z,15.97
2017-10-11T06:58:17.072Z,16
2017-10-11T06:59:16.404Z,15.94
2017-10-11T07:00:17.061Z,16.08
2017-10-11T07:01:17.056Z,16.04
2017-10-11T07:02:17.056Z,16.14
2017-10-11T07:03:17.042Z,16.09
2017-10-11T07:04:17.041Z,16.14
2017-10-11T07:05:16.702Z,16.17
2017-10-11T07:06:17.043Z,16.17
2017-10-11T07:07:17.023Z,16.09
2017-10-11T07:08:17.028Z,16.08
2017-10-11T07:09:17.011Z,16.23
2017-10-11T07:10:17.011Z,16.3
2017-10-11T07:11:16.668Z,16.21
2017-10-11T07:12:16.997Z,16.31
2017-10-11T07:13:16.666Z,16.41
2017-10-11T07:14:16.650Z,16.41
2017-10-11T07:15:16.978Z,16.5
2017-10-11T07:16:16.978Z,16.6
2017-10-11T07:17:16.307Z,16.6
2017-10-11T07:18:16.656Z,16.56
2017-10-11T07:19:16.297Z,16.58
2017-10-11T07:20:16.617Z,16.48
2017-10-11T07:21:16.951Z,16.67
2017-10-11T07:22:16.611Z,16.63
2017-10-11T07:23:16.941Z,16.68
2017-10-11T07:24:16.937Z,16.76
2017-10-11T07:25:16.936Z,16.79
2017-10-11T07:26:16.921Z,16.81
2017-10-11T07:27:16.917Z,16.93
2017-10-11T07:28:16.917Z,16.94
2017-10-11T07:29:17.008Z,16.97
2017-10-11T07:30:16.906Z,16.98
2017-10-11T07:31:16.567Z,17.07
2017-10-11T07:32:16.563Z,17.12
2017-10-11T07:33:16.889Z,17.23
2017-10-11T07:34:16.888Z,17.19
2017-10-11T07:35:16.548Z,17.28
2017-10-11T07:36:16.881Z,17.3
2017-10-11T07:37:16.539Z,17.26
2017-10-11T07:38:16.535Z,17.37
2017-10-11T07:39:16.863Z,17.4
2017-10-11T07:40:16.867Z,17.37
2017-10-11T07:41:16.849Z,17.4
2017-10-11T07:42:16.526Z,17.43
2017-10-11T07:43:16.842Z,17.49
2017-10-11T07:44:16.843Z,17.46
2017-10-11T07:45:16.832Z,17.43
2017-10-11T07:46:16.829Z,17.48
2017-10-11T07:47:16.494Z,17.43
2017-10-11T07:48:16.816Z,17.49
2017-10-11T07:49:16.815Z,17.55
2017-10-11T07:50:17.063Z,17.54
2017-10-11T07:51:16.824Z,17.55
2017-10-11T07:52:16.803Z,17.58
2017-10-11T07:53:16.806Z,17.59
2017-10-11T07:54:16.462Z,17.62
2017-10-11T07:55:16.790Z,17.63
2017-10-11T07:56:16.785Z,17.62
2017-10-11T07:57:16.451Z,17.59
2017-10-11T07:58:16.777Z,17.71
2017-10-11T07:59:16.770Z,17.77
2017-10-11T08:00:16.443Z,17.78
2017-10-11T08:01:16.432Z,17.86
2017-10-11T08:02:16.098Z,17.93
2017-10-11T08:03:16.423Z,17.9
2017-10-11T08:04:16.428Z,17.92
2017-10-11T08:05:16.746Z,18.02
2017-10-11T08:06:16.742Z,18.15
2017-10-11T08:07:16.739Z,18.11
2017-10-11T08:08:16.729Z,18.21
2017-10-11T08:09:16.731Z,18.21
2017-10-11T08:10:16.738Z,18.26
2017-10-11T08:11:16.727Z,18.41
2017-10-11T08:12:16.721Z,18.36
2017-10-11T08:13:16.717Z,18.41
2017-10-11T08:14:16.712Z,18.41
2017-10-11T08:15:16.374Z,18.44
2017-10-11T08:16:16.703Z,18.47
2017-10-11T08:17:16.702Z,18.42
2017-10-11T08:18:16.698Z,18.42
2017-10-11T08:19:16.692Z,18.45
2017-10-11T08:20:16.688Z,18.37
2017-10-11T08:21:16.355Z,18.44
2017-10-11T08:22:16.681Z,18.45
2017-10-11T08:23:16.679Z,18.44
2017-10-11T08:24:16.673Z,18.57
2017-10-11T08:25:16.343Z,18.57
2017-10-11T08:26:16.661Z,18.54
2017-10-11T08:27:17.069Z,18.6
2017-10-11T08:28:16.326Z,18.78
2017-10-11T08:29:16.652Z,18.67
2017-10-11T08:30:16.319Z,18.87
2017-10-11T08:31:16.314Z,18.8
2017-10-11T08:32:16.648Z,18.81
2017-10-11T08:33:16.645Z,18.9
2017-10-11T08:34:16.308Z,18.94
2017-10-11T08:35:16.301Z,18.91
2017-10-11T08:36:16.299Z,18.9
2017-10-11T08:37:16.297Z,18.9
2017-10-11T08:38:16.291Z,18.88
2017-10-11T08:39:16.632Z,18.94
2017-10-11T08:40:16.616Z,19
2017-10-11T08:41:16.617Z,18.98
2017-10-11T08:42:16.316Z,19.11
2017-10-11T08:43:16.604Z,18.95
2017-10-11T08:44:16.274Z,19.04
2017-10-11T08:45:16.600Z,18.94
2017-10-11T08:46:16.266Z,18.87
2017-10-11T08:47:16.595Z,18.8
2017-10-11T08:48:16.260Z,18.84
2017-10-11T08:49:16.586Z,18.81
2017-10-11T08:50:16.585Z,18.75
2017-10-11T08:51:16.581Z,18.81
2017-10-11T08:52:16.591Z,18.8
2017-10-11T08:53:15.913Z,18.84
2017-10-11T08:54:16.586Z,18.7
2017-10-11T08:55:16.567Z,18.84
2017-10-11T08:56:16.579Z,18.92
2017-10-11T08:57:16.860Z,18.95
2017-10-11T08:58:16.562Z,19.04
2017-10-11T08:59:16.559Z,19.26
2017-10-11T09:00:16.553Z,19.37
2017-10-11T09:01:16.562Z,19.5
2017-10-11T09:02:16.550Z,19.63
2017-10-11T09:03:16.551Z,19.74
2017-10-11T09:04:16.545Z,19.84
2017-10-11T09:05:16.542Z,19.92
2017-10-11T09:06:16.533Z,19.92
2017-10-11T09:07:16.536Z,20.23
2017-10-11T09:08:16.536Z,20.23
2017-10-11T09:09:16.527Z,20.24
2017-10-11T09:10:16.568Z,20.28
2017-10-11T09:11:16.522Z,20.2
2017-10-11T09:12:16.523Z,20.28
2017-10-11T09:13:16.522Z,20.23
2017-10-11T09:14:16.186Z,20.14
2017-10-11T09:15:16.523Z,20.23
2017-10-11T09:16:16.184Z,20.29
2017-10-11T09:17:16.511Z,20.31
2017-10-11T09:18:15.845Z,20.42
2017-10-11T09:19:16.503Z,20.52
2017-10-11T09:20:16.178Z,20.55
2017-10-11T09:21:16.499Z,20.64
2017-10-11T09:22:16.499Z,20.61
2017-10-11T09:23:16.493Z,20.59
2017-10-11T09:24:16.169Z,20.66
2017-10-11T09:25:15.831Z,20.77
2017-10-11T09:26:15.831Z,20.82
2017-10-11T09:27:16.513Z,20.94
2017-10-11T09:28:16.490Z,20.98
2017-10-11T09:29:16.485Z,21.07
2017-10-11T09:30:16.485Z,21.17
2017-10-11T09:31:16.482Z,21.27
2017-10-11T09:32:16.479Z,21.31
2017-10-11T09:33:16.790Z,21.34
2017-10-11T09:34:16.472Z,21.38
2017-10-11T09:35:16.498Z,21.37
2017-10-11T09:36:16.485Z,21.32
2017-10-11T09:37:16.470Z,21.34
2017-10-11T09:38:16.469Z,21.4
2017-10-11T09:39:16.471Z,21.42
2017-10-11T09:40:16.133Z,21.4
2017-10-11T09:41:16.468Z,21.32
2017-10-11T09:42:16.129Z,21.32
2017-10-11T09:43:16.137Z,21.4
2017-10-11T09:44:16.483Z,21.25
2017-10-11T09:45:16.469Z,21.38
2017-10-11T09:46:16.462Z,21.37
2017-10-11T09:47:16.456Z,21.35
2017-10-11T09:48:16.331Z,21.32
2017-10-11T09:49:16.120Z,21.31
2017-10-11T09:50:16.453Z,21.32
2017-10-11T09:51:16.455Z,21.17
2017-10-11T09:52:16.451Z,21.19
2017-10-11T09:53:16.451Z,21.28
2017-10-11T09:54:16.115Z,21.21
2017-10-11T09:55:16.449Z,21.27
2017-10-11T09:56:16.447Z,21.38
2017-10-11T09:57:16.451Z,21.35
2017-10-11T09:58:16.114Z,21.46
2017-10-11T09:59:16.110Z,21.56
2017-10-11T10:00:16.121Z,21.58
2017-10-11T10:01:16.442Z,21.52
2017-10-11T10:02:16.444Z,21.53
2017-10-11T10:03:16.444Z,21.61
2017-10-11T10:04:16.436Z,21.64
2017-10-11T10:05:16.104Z,21.71
2017-10-11T10:06:16.439Z,21.72
2017-10-11T10:07:16.436Z,21.84
2017-10-11T10:08:16.432Z,21.8
2017-10-11T10:09:16.104Z,21.91
2017-10-11T10:10:15.766Z,21.79
2017-10-11T10:11:16.097Z,21.94
2017-10-11T10:12:16.429Z,21.96
2017-10-11T10:13:16.426Z,21.82
2017-10-11T10:14:16.435Z,21.75
2017-10-11T10:15:16.438Z,21.77
2017-10-11T10:16:16.438Z,21.84
2017-10-11T10:17:16.421Z,21.86
2017-10-11T10:18:16.423Z,21.84
2017-10-11T10:19:16.092Z,21.67
2017-10-11T10:20:16.418Z,21.61
2017-10-11T10:21:16.087Z,21.46
2017-10-11T10:22:16.418Z,21.38
2017-10-11T10:23:16.419Z,21.35
2017-10-11T10:24:16.415Z,21.37
2017-10-11T10:25:16.423Z,21.37
2017-10-11T10:26:16.081Z,21.38
2017-10-11T10:27:16.413Z,21.28
2017-10-11T10:28:16.077Z,21.29
2017-10-11T10:29:16.081Z,21.28
2017-10-11T10:30:16.410Z,21.32
2017-10-11T10:31:16.406Z,21.21
2017-10-11T10:32:16.405Z,21.17
2017-10-11T10:33:16.406Z,21.16
2017-10-11T10:34:16.399Z,21.14
2017-10-11T10:35:16.073Z,21.09
2017-10-11T10:36:16.068Z,20.99
2017-10-11T10:37:16.410Z,20.94
2017-10-11T10:38:16.398Z,20.91
2017-10-11T10:39:16.396Z,20.77
2017-10-11T10:40:16.394Z,20.7
2017-10-11T10:41:16.396Z,20.66
2017-10-11T10:42:16.388Z,20.62
2017-10-11T10:43:16.391Z,20.61
2017-10-11T10:44:16.400Z,20.64
2017-10-11T10:45:16.385Z,20.55
2017-10-11T10:46:16.384Z,20.51
2017-10-11T10:47:16.391Z,20.54
2017-10-11T10:48:16.247Z,20.51
2017-10-11T10:49:16.603Z,20.52
2017-10-11T10:50:16.373Z,20.35
2017-10-11T10:51:16.038Z,20.38
2017-10-11T10:52:16.035Z,20.42
2017-10-11T10:53:16.038Z,20.39
2017-10-11T10:54:16.364Z,20.36
2017-10-11T10:55:16.363Z,20.32
2017-10-11T10:56:16.365Z,20.21
2017-10-11T10:57:16.360Z,20.23
2017-10-11T10:58:16.355Z,20.24
2017-10-11T10:59:16.358Z,20.17
2017-10-11T11:00:15.688Z,20.06
2017-10-11T11:01:15.683Z,20.16
2017-10-11T11:02:16.349Z,20.1
2017-10-11T11:03:16.009Z,20.17
2017-10-11T11:04:16.343Z,20.11
2017-10-11T11:05:16.337Z,20.08
2017-10-11T11:06:16.338Z,20.13
2017-10-11T11:07:16.328Z,20.02
2017-10-11T11:08:16.332Z,20.17
2017-10-11T11:09:16.334Z,20.06
2017-10-11T11:10:15.990Z,20.14
2017-10-11T11:11:16.327Z,20.17
2017-10-11T11:12:16.323Z,20.13
2017-10-11T11:13:16.321Z,20.08
2017-10-11T11:14:16.313Z,20.08
2017-10-11T11:15:16.314Z,20.06
2017-10-11T11:16:15.646Z,20.08
2017-10-11T11:17:15.974Z,20.1
2017-10-11T11:18:15.972Z,19.96
2017-10-11T11:19:16.306Z,19.94
2017-10-11T11:20:15.967Z,19.87
2017-10-11T11:21:15.963Z,19.88
2017-10-11T11:22:16.545Z,19.77
2017-10-11T11:23:16.294Z,19.81
2017-10-11T11:24:16.291Z,19.78
2017-10-11T11:25:15.954Z,19.83
2017-10-11T11:26:16.284Z,19.92
2017-10-11T11:27:16.281Z,19.88
2017-10-11T11:28:16.279Z,19.91
2017-10-11T11:29:15.940Z,19.92
2017-10-11T11:30:16.273Z,19.92
2017-10-11T11:31:16.270Z,19.81
2017-10-11T11:32:16.271Z,19.83
2017-10-11T11:33:16.264Z,19.86
2017-10-11T11:34:15.931Z,19.83
2017-10-11T11:35:15.933Z,19.78
2017-10-11T11:36:15.927Z,19.69
2017-10-11T11:37:16.252Z,19.74
2017-10-11T11:38:16.268Z,19.73
2017-10-11T11:39:16.248Z,19.74
2017-10-11T11:40:16.250Z,19.55
2017-10-11T11:41:16.269Z,19.47
2017-10-11T11:42:16.246Z,19.36
2017-10-11T11:43:15.904Z,19.33
2017-10-11T11:44:16.238Z,19.33
2017-10-11T11:45:16.236Z,19.29
2017-10-11T11:46:16.232Z,19.39
2017-10-11T11:47:16.225Z,19.32
2017-10-11T11:48:16.227Z,19.37
2017-10-11T11:49:15.907Z,19.48
2017-10-11T11:50:16.216Z,19.61
2017-10-11T11:51:15.881Z,19.74
2017-10-11T11:52:16.212Z,19.86
2017-10-11T11:53:16.467Z,19.91
2017-10-11T11:54:15.878Z,20.1
2017-10-11T11:55:16.204Z,20.06
2017-10-11T11:56:16.200Z,20.23
2017-10-11T11:57:16.197Z,20.38
2017-10-11T11:58:16.194Z,20.51
2017-10-11T11:59:15.862Z,20.57
2017-10-11T12:00:15.895Z,20.67
2017-10-11T12:01:15.525Z,20.66
2017-10-11T12:02:16.186Z,20.76
2017-10-11T12:03:16.183Z,20.77
2017-10-11T12:04:16.186Z,20.92
2017-10-11T12:05:16.180Z,20.92
2017-10-11T12:06:16.175Z,20.97
2017-10-11T12:07:16.177Z,20.94
2017-10-11T12:08:16.173Z,21.01
2017-10-11T12:09:15.837Z,21.03
2017-10-11T12:10:15.838Z,20.97
2017-10-11T12:11:15.833Z,20.98
2017-10-11T12:12:15.830Z,21.04
2017-10-11T12:13:15.829Z,21.07
2017-10-11T12:14:16.460Z,20.99
2017-10-11T12:15:16.164Z,21.01
2017-10-11T12:16:15.826Z,20.95
2017-10-11T12:17:16.153Z,20.88
2017-10-11T12:18:16.166Z,20.82
2017-10-11T12:19:16.156Z,20.84
2017-10-11T12:20:16.148Z,20.8
2017-10-11T12:21:16.150Z,20.66
2017-10-11T12:22:15.813Z,20.57
2017-10-11T12:23:15.812Z,20.61
2017-10-11T12:24:16.145Z,20.52
2017-10-11T12:25:16.141Z,20.38
2017-10-11T12:26:16.140Z,20.36
2017-10-11T12:27:15.800Z,20.21
2017-10-11T12:28:16.152Z,20.2
2017-10-11T12:29:16.132Z,20.17
2017-10-11T12:30:16.700Z,20.18
2017-10-11T12:31:16.135Z,20.05
2017-10-11T12:32:16.124Z,20.08
2017-10-11T12:33:15.788Z,20.13
2017-10-11T12:34:16.120Z,20.03
2017-10-11T12:35:16.493Z,20.03
2017-10-11T12:36:15.777Z,20.03
2017-10-11T12:37:15.775Z,19.94
2017-10-11T12:38:15.780Z,19.95
2017-10-11T12:39:16.111Z,20.01
2017-10-11T12:40:16.519Z,19.96
2017-10-11T12:41:16.099Z,19.84
2017-10-11T12:42:15.764Z,19.83
2017-10-11T12:43:16.097Z,19.8
2017-10-11T12:44:16.093Z,19.86
2017-10-11T12:45:16.085Z,19.83
2017-10-11T12:46:16.079Z,19.87
2017-10-11T12:47:16.078Z,19.78
2017-10-11T12:48:16.076Z,19.8
2017-10-11T12:49:16.084Z,19.84
2017-10-11T12:50:15.739Z,19.78
2017-10-11T12:51:16.069Z,19.87
2017-10-11T12:52:16.072Z,19.87
2017-10-11T12:53:16.069Z,19.8
2017-10-11T12:54:15.732Z,19.84
2017-10-11T12:55:16.071Z,19.91